Time;durP1;ratioP1;P1;durP2;ratioP2;P2;SDS_P1;SDS_P2;PMS_P1;PMS_P2;Temp;Humidity;BMP_temperature;BMP_pressure;BME280_temperature;BME280_humidity;BME280_pressure;Samples;Min_cycle;Max_cycle;Signal;HPM_P1;HPM_P2
2023/06/08 00:01:25;;;;;;;20.48;9.18;;;;;;;;;;5027510;28;20210;-70
2023/06/08 00:03:52;;;;;;;21.65;10.68;;;;;;;;;;5025020;28;20198;-70
2023/06/08 00:06:20;;;;;;;18.55;9.23;;;;;;;;;;5028044;28;20186;-72
2023/06/08 00:08:46;;;;;;;20.85;9.75;;;;;;;;;;5017404;28;20300;-70
2023/06/08 00:11:11;;;;;;;24.05;9.70;;;;;;;;;;5026946;28;20701;-69
2023/06/08 00:13:37;;;;;;;24.70;10.88;;;;;;;;;;5022412;28;20194;-70
2023/06/08 00:16:03;;;;;;;21.08;9.43;;;;;;;;;;5027433;28;20570;-70
2023/06/08 00:18:30;;;;;;;21.40;9.30;;;;;;;;;;5024750;28;20617;-70
2023/06/08 00:20:56;;;;;;;27.98;11.00;;;;;;;;;;5031167;28;20193;-70
2023/06/08 00:23:21;;;;;;;20.52;9.52;;;;;;;;;;5025419;28;20701;-71
2023/06/08 00:25:47;;;;;;;17.25;9.95;;;;;;;;;;5044103;28;20217;-71
2023/06/08 00:28:12;;;;;;;23.85;9.40;;;;;;;;;;5025273;28;20671;-70
2023/06/08 00:30:38;;;;;;;24.58;10.05;;;;;;;;;;5035432;28;20251;-70
2023/06/08 00:33:04;;;;;;;29.85;10.13;;;;;;;;;;5034461;28;20200;-70
2023/06/08 00:35:30;;;;;;;26.80;10.27;;;;;;;;;;5029426;28;20190;-70
2023/06/08 00:37:56;;;;;;;29.38;11.15;;;;;;;;;;5031362;28;20664;-70
2023/06/08 00:40:21;;;;;;;24.70;10.88;;;;;;;;;;5037254;28;20253;-70
2023/06/08 00:42:47;;;;;;;24.00;10.93;;;;;;;;;;5033875;28;20206;-71
2023/06/08 00:45:12;;;;;;;27.25;11.00;;;;;;;;;;5032316;28;20319;-70
2023/06/08 00:47:38;;;;;;;21.23;11.88;;;;;;;;;;5040930;28;20197;-70
2023/06/08 00:50:07;;;;;;;25.42;11.07;;;;;;;;;;5027944;28;20190;-71
2023/06/08 00:52:33;;;;;;;27.33;11.10;;;;;;;;;;5017706;28;20179;-71
2023/06/08 00:55:00;;;;;;;23.00;10.93;;;;;;;;;;5025578;28;20194;-70
2023/06/08 00:57:28;;;;;;;23.75;10.95;;;;;;;;;;5022308;28;20206;-70
2023/06/08 00:59:55;;;;;;;21.13;11.35;;;;;;;;;;5026635;28;20212;-71
2023/06/08 01:02:23;;;;;;;26.10;11.48;;;;;;;;;;5022277;28;20695;-71
2023/06/08 01:04:50;;;;;;;22.23;11.15;;;;;;;;;;5028266;28;20186;-70
2023/06/08 01:07:25;;;;;;;24.85;12.30;;;;;;;;;;5034542;28;20672;-71
2023/06/08 01:10:15;;;;;;;20.55;11.80;;;;;;;;;;5028251;28;20224;-71
2023/06/08 01:13:00;;;;;;;26.20;11.55;;;;;;;;;;5018656;28;20191;-71
2023/06/08 01:15:31;;;;;;;22.92;12.40;;;;;;;;;;5026636;28;20186;-70
2023/06/08 01:18:04;;;;;;;29.27;12.30;;;;;;;;;;5026002;28;20190;-71
2023/06/08 01:20:48;;;;;;;25.23;11.68;;;;;;;;;;5028010;28;20194;-70
2023/06/08 01:23:38;;;;;;;24.42;11.52;;;;;;;;;;5024445;28;20264;-70
2023/06/08 01:26:04;;;;;;;23.10;12.43;;;;;;;;;;5024774;28;20664;-71
2023/06/08 01:28:31;;;;;;;23.92;11.73;;;;;;;;;;5024751;28;20210;-70
2023/06/08 01:30:58;;;;;;;28.02;12.73;;;;;;;;;;5017656;28;20194;-71
2023/06/08 01:33:26;;;;;;;27.13;12.55;;;;;;;;;;5022475;28;20557;-70
2023/06/08 01:36:16;;;;;;;23.50;12.18;;;;;;;;;;5028089;28;20214;-71
2023/06/08 01:39:05;;;;;;;26.25;11.90;;;;;;;;;;5016318;28;20195;-70
2023/06/08 01:41:34;;;;;;;39.45;13.73;;;;;;;;;;5033113;28;20230;-71
2023/06/08 01:44:01;;;;;;;25.50;12.20;;;;;;;;;;5030049;28;20259;-70
2023/06/08 01:46:30;;;;;;;27.88;13.13;;;;;;;;;;5058492;28;20185;-70
2023/06/08 01:48:58;;;;;;;29.05;12.90;;;;;;;;;;5034096;28;20198;-70
2023/06/08 01:51:25;;;;;;;26.15;12.80;;;;;;;;;;5031005;28;20642;-71
2023/06/08 01:54:02;;;;;;;29.08;12.75;;;;;;;;;;5045907;28;20205;-69
2023/06/08 01:56:32;;;;;;;29.98;13.73;;;;;;;;;;5030882;28;20222;-70
2023/06/08 01:58:57;;;;;;;26.15;13.93;;;;;;;;;;5040736;28;20182;-70
2023/06/08 02:01:23;;;;;;;27.05;13.90;;;;;;;;;;5045207;28;20303;-71
2023/06/08 02:03:48;;;;;;;27.88;13.45;;;;;;;;;;5029642;28;20190;-70
2023/06/08 02:06:14;;;;;;;35.42;15.18;;;;;;;;;;5032198;28;20243;-70
2023/06/08 02:08:39;;;;;;;28.92;15.00;;;;;;;;;;5039967;28;20197;-70
2023/06/08 02:11:05;;;;;;;29.80;15.65;;;;;;;;;;5043204;28;20229;-70
2023/06/08 02:13:34;;;;;;;32.15;14.32;;;;;;;;;;5030176;28;20528;-70
2023/06/08 02:16:00;;;;;;;32.78;14.38;;;;;;;;;;5040517;28;20378;-71
2023/06/08 02:18:26;;;;;;;28.92;15.40;;;;;;;;;;5033365;28;20251;-70
2023/06/08 02:20:52;;;;;;;28.23;15.13;;;;;;;;;;5031069;28;20249;-70
2023/06/08 02:23:17;;;;;;;30.42;15.55;;;;;;;;;;5028079;28;20214;-71
2023/06/08 02:25:43;;;;;;;28.50;16.23;;;;;;;;;;5031259;28;20264;-70
2023/06/08 02:28:08;;;;;;;27.13;15.93;;;;;;;;;;5025720;28;20200;-71
2023/06/08 02:30:33;;;;;;;32.08;15.93;;;;;;;;;;5031332;28;20673;-71
2023/06/08 02:32:59;;;;;;;25.33;14.02;;;;;;;;;;5020192;28;20293;-70
2023/06/08 02:35:24;;;;;;;32.35;16.05;;;;;;;;;;5025777;28;20217;-70
2023/06/08 02:37:50;;;;;;;33.38;16.98;;;;;;;;;;5028791;28;20186;-72
2023/06/08 02:40:15;;;;;;;34.70;16.90;;;;;;;;;;5029805;28;20260;-70
2023/06/08 02:42:41;;;;;;;32.60;16.83;;;;;;;;;;5031037;28;20283;-71
2023/06/08 02:45:06;;;;;;;33.88;16.50;;;;;;;;;;5030946;28;20201;-70
2023/06/08 02:47:32;;;;;;;26.35;16.90;;;;;;;;;;5030794;28;20552;-71
2023/06/08 02:49:57;;;;;;;35.40;16.85;;;;;;;;;;5028377;28;20614;-70
2023/06/08 02:52:23;;;;;;;30.67;17.67;;;;;;;;;;5041383;28;20181;-71
2023/06/08 02:54:48;;;;;;;29.40;17.17;;;;;;;;;;5046058;28;20201;-70
2023/06/08 02:57:14;;;;;;;36.13;17.17;;;;;;;;;;5032277;28;20186;-71
2023/06/08 02:59:40;;;;;;;30.80;17.25;;;;;;;;;;5030229;28;20281;-70
2023/06/08 03:02:06;;;;;;;35.25;17.08;;;;;;;;;;5030249;28;20556;-70
2023/06/08 03:04:31;;;;;;;31.65;17.20;;;;;;;;;;5030638;28;20215;-70
2023/06/08 03:06:57;;;;;;;33.38;16.63;;;;;;;;;;5013465;28;20637;-70
2023/06/08 03:09:30;;;;;;;33.88;16.67;;;;;;;;;;5020778;28;20305;-71
2023/06/08 03:11:56;;;;;;;32.90;17.10;;;;;;;;;;5028355;28;20197;-71
2023/06/08 03:14:28;;;;;;;31.25;16.90;;;;;;;;;;5027845;28;20217;-70
2023/06/08 03:16:57;;;;;;;35.58;16.67;;;;;;;;;;5028482;28;20683;-70
2023/06/08 03:19:23;;;;;;;30.13;17.38;;;;;;;;;;5026460;28;20226;-69
2023/06/08 03:21:49;;;;;;;33.75;17.10;;;;;;;;;;5035404;28;20241;-69
2023/06/08 03:24:15;;;;;;;29.67;16.45;;;;;;;;;;5030999;28;20611;-71
2023/06/08 03:26:40;;;;;;;28.58;16.92;;;;;;;;;;5027337;28;20194;-70
2023/06/08 03:29:05;;;;;;;29.75;16.55;;;;;;;;;;5023596;28;20194;-70
2023/06/08 03:31:36;;;;;;;32.15;16.45;;;;;;;;;;5027762;28;20194;-71
2023/06/08 03:34:03;;;;;;;30.85;16.40;;;;;;;;;;5020133;28;20694;-72
2023/06/08 03:36:33;;;;;;;29.90;17.17;;;;;;;;;;5026625;28;20202;-72
2023/06/08 03:39:02;;;;;;;29.83;17.33;;;;;;;;;;5030472;28;20203;-71
2023/06/08 03:41:28;;;;;;;29.10;17.42;;;;;;;;;;5027834;28;20249;-72
2023/06/08 03:43:54;;;;;;;30.42;15.52;;;;;;;;;;5029433;28;20694;-71
2023/06/08 03:46:20;;;;;;;27.48;16.02;;;;;;;;;;5037912;28;20269;-71
2023/06/08 03:48:45;;;;;;;29.42;16.38;;;;;;;;;;5030338;28;20757;-72
2023/06/08 03:51:11;;;;;;;28.73;15.98;;;;;;;;;;5020048;28;20191;-71
2023/06/08 03:53:36;;;;;;;28.88;17.00;;;;;;;;;;5029917;28;20196;-71
2023/06/08 03:56:02;;;;;;;35.63;17.10;;;;;;;;;;5027301;28;20328;-71
2023/06/08 03:58:28;;;;;;;28.42;15.95;;;;;;;;;;5028366;28;20193;-71
2023/06/08 04:00:56;;;;;;;29.85;17.05;;;;;;;;;;5034279;28;20688;-71
2023/06/08 04:03:24;;;;;;;28.60;16.05;;;;;;;;;;5030695;28;20209;-71
2023/06/08 04:05:50;;;;;;;28.52;16.20;;;;;;;;;;5028359;28;20209;-71
2023/06/08 04:08:16;;;;;;;30.27;16.27;;;;;;;;;;5031155;28;20349;-70
2023/06/08 04:10:42;;;;;;;28.05;15.75;;;;;;;;;;5029071;28;20190;-71
2023/06/08 04:13:07;;;;;;;28.73;15.48;;;;;;;;;;5031624;28;20646;-71
2023/06/08 04:15:32;;;;;;;27.00;15.20;;;;;;;;;;5029120;28;20185;-70
2023/06/08 04:17:58;;;;;;;32.15;16.83;;;;;;;;;;5028649;28;20213;-70
2023/06/08 04:20:23;;;;;;;25.48;15.50;;;;;;;;;;5029001;28;20202;-70
2023/06/08 04:22:48;;;;;;;31.77;15.48;;;;;;;;;;5025581;28;20300;-71
2023/06/08 04:25:15;;;;;;;29.70;16.27;;;;;;;;;;5024498;28;20209;-68
2023/06/08 04:27:41;;;;;;;32.33;16.02;;;;;;;;;;5026652;28;20185;-70
2023/06/08 04:30:07;;;;;;;34.42;15.90;;;;;;;;;;5026848;28;20569;-70
2023/06/08 04:32:32;;;;;;;28.42;14.52;;;;;;;;;;5039219;28;20186;-70
2023/06/08 04:34:58;;;;;;;27.60;14.65;;;;;;;;;;5034411;28;20255;-70
2023/06/08 04:37:23;;;;;;;23.73;14.40;;;;;;;;;;5025445;28;20430;-70
2023/06/08 04:39:49;;;;;;;26.15;14.48;;;;;;;;;;5023903;28;20242;-70
2023/06/08 04:42:16;;;;;;;25.75;15.10;;;;;;;;;;5020300;28;20217;-70
2023/06/08 04:44:43;;;;;;;25.10;15.23;;;;;;;;;;5030129;28;20201;-70
2023/06/08 04:47:08;;;;;;;24.17;15.00;;;;;;;;;;5035963;28;20195;-70
2023/06/08 04:49:34;;;;;;;28.83;14.52;;;;;;;;;;5023896;28;20736;-70
2023/06/08 04:52:00;;;;;;;26.65;14.55;;;;;;;;;;5028705;28;20194;-70
2023/06/08 04:54:26;;;;;;;29.50;14.05;;;;;;;;;;5031373;28;20186;-70
2023/06/08 04:56:58;;;;;;;25.92;14.70;;;;;;;;;;5027794;28;20344;-69
2023/06/08 04:59:27;;;;;;;25.95;13.80;;;;;;;;;;5026779;28;20625;-71
2023/06/08 05:01:53;;;;;;;28.95;13.65;;;;;;;;;;5026439;28;20217;-71
2023/06/08 05:04:18;;;;;;;23.67;13.73;;;;;;;;;;5024415;28;20186;-70
2023/06/08 05:06:44;;;;;;;24.52;13.23;;;;;;;;;;5042523;28;20574;-71
2023/06/08 05:09:10;;;;;;;22.50;13.18;;;;;;;;;;5027690;28;20646;-71
2023/06/08 05:11:35;;;;;;;26.40;13.85;;;;;;;;;;5024761;28;20202;-71
2023/06/08 05:14:01;;;;;;;27.13;14.30;;;;;;;;;;5030059;28;20196;-71
2023/06/08 05:16:26;;;;;;;33.58;13.80;;;;;;;;;;5032450;28;20194;-71
2023/06/08 05:18:51;;;;;;;24.27;13.18;;;;;;;;;;5034077;28;20193;-72
2023/06/08 05:21:17;;;;;;;22.73;12.95;;;;;;;;;;5033095;28;20186;-72
2023/06/08 05:23:42;;;;;;;29.05;13.30;;;;;;;;;;5030219;28;20201;-72
2023/06/08 05:26:07;;;;;;;26.33;13.52;;;;;;;;;;5022717;28;20229;-71
2023/06/08 05:28:33;;;;;;;20.25;12.73;;;;;;;;;;5034960;28;20248;-71
2023/06/08 05:30:58;;;;;;;23.38;12.85;;;;;;;;;;5029649;28;20265;-71
2023/06/08 05:33:24;;;;;;;25.42;13.88;;;;;;;;;;5027672;28;20236;-72
2023/06/08 05:35:49;;;;;;;26.60;13.10;;;;;;;;;;5025722;28;20562;-72
2023/06/08 05:38:15;;;;;;;22.10;12.32;;;;;;;;;;5030879;28;20216;-71
2023/06/08 05:40:40;;;;;;;25.95;13.55;;;;;;;;;;5030573;28;20257;-71
2023/06/08 05:43:06;;;;;;;26.33;12.32;;;;;;;;;;5019783;28;20297;-70
2023/06/08 05:45:31;;;;;;;23.38;11.88;;;;;;;;;;5030369;28;20226;-71
2023/06/08 05:47:56;;;;;;;20.73;12.18;;;;;;;;;;5033807;28;20185;-70
2023/06/08 05:50:22;;;;;;;21.60;12.38;;;;;;;;;;5029667;28;20940;-71
2023/06/08 05:52:47;;;;;;;23.15;12.85;;;;;;;;;;5028365;28;20255;-71
2023/06/08 05:55:13;;;;;;;23.60;12.95;;;;;;;;;;5030255;28;20198;-71
2023/06/08 05:57:38;;;;;;;22.65;13.18;;;;;;;;;;5030959;28;20240;-70
2023/06/08 06:00:09;;;;;;;25.75;12.98;;;;;;;;;;5028829;28;20282;-70
2023/06/08 06:02:34;;;;;;;23.58;12.48;;;;;;;;;;5027786;28;20202;-70
2023/06/08 06:05:00;;;;;;;21.80;12.65;;;;;;;;;;5025315;28;20443;-72
2023/06/08 06:07:25;;;;;;;20.33;12.15;;;;;;;;;;5033933;28;20225;-71
2023/06/08 06:09:51;;;;;;;20.92;11.38;;;;;;;;;;5031556;28;20579;-72
2023/06/08 06:12:16;;;;;;;24.58;13.25;;;;;;;;;;5036553;28;20186;-71
2023/06/08 06:14:42;;;;;;;24.48;12.75;;;;;;;;;;5028851;28;20194;-71
2023/06/08 06:17:09;;;;;;;19.83;12.40;;;;;;;;;;5032563;28;20182;-71
2023/06/08 06:19:36;;;;;;;23.58;12.60;;;;;;;;;;5025518;28;20182;-71
2023/06/08 06:22:04;;;;;;;20.85;12.18;;;;;;;;;;5024750;28;20214;-70
2023/06/08 06:24:29;;;;;;;20.23;12.38;;;;;;;;;;5024205;28;20193;-71
2023/06/08 06:26:55;;;;;;;21.85;11.45;;;;;;;;;;5037550;28;20202;-71
2023/06/08 06:29:20;;;;;;;19.08;12.45;;;;;;;;;;5031004;28;20206;-71
2023/06/08 06:31:45;;;;;;;24.15;12.25;;;;;;;;;;5035424;28;20267;-70
2023/06/08 06:34:11;;;;;;;19.50;11.65;;;;;;;;;;5026795;28;20231;-70
2023/06/08 06:36:36;;;;;;;26.42;12.82;;;;;;;;;;5022303;28;20260;-70
2023/06/08 06:39:02;;;;;;;23.80;12.20;;;;;;;;;;5038498;28;20204;-70
2023/06/08 06:41:27;;;;;;;20.88;11.95;;;;;;;;;;5020811;28;20222;-70
2023/06/08 06:43:53;;;;;;;17.58;10.70;;;;;;;;;;5018040;28;20234;-71
2023/06/08 06:46:20;;;;;;;23.48;11.27;;;;;;;;;;5016559;28;20249;-72
2023/06/08 06:48:45;;;;;;;20.40;11.00;;;;;;;;;;5018402;28;20258;-70
2023/06/08 06:51:11;;;;;;;21.52;11.02;;;;;;;;;;5027360;28;20325;-71
2023/06/08 06:53:36;;;;;;;17.90;11.23;;;;;;;;;;5017956;28;20187;-69
2023/06/08 06:56:02;;;;;;;20.13;11.07;;;;;;;;;;5030454;28;20201;-70
2023/06/08 06:58:27;;;;;;;22.75;11.25;;;;;;;;;;5038302;28;20228;-70
2023/06/08 07:00:55;;;;;;;15.65;10.13;;;;;;;;;;5016803;28;20255;-70
2023/06/08 07:03:21;;;;;;;18.00;10.50;;;;;;;;;;5029954;28;20229;-71
2023/06/08 07:05:47;;;;;;;16.23;10.38;;;;;;;;;;5016225;28;20432;-70
2023/06/08 07:08:13;;;;;;;19.45;11.38;;;;;;;;;;5027894;28;20190;-70
2023/06/08 07:10:38;;;;;;;18.83;9.93;;;;;;;;;;5031057;28;20189;-70
2023/06/08 07:13:04;;;;;;;19.23;10.75;;;;;;;;;;5021994;28;20202;-71
2023/06/08 07:15:30;;;;;;;16.55;10.48;;;;;;;;;;5029079;28;20183;-70
2023/06/08 07:17:55;;;;;;;19.60;9.90;;;;;;;;;;5009854;28;20282;-69
2023/06/08 07:20:20;;;;;;;24.33;11.18;;;;;;;;;;5035459;28;20194;-69
2023/06/08 07:22:46;;;;;;;21.17;10.40;;;;;;;;;;5032181;28;20288;-70
2023/06/08 07:25:14;;;;;;;19.40;11.57;;;;;;;;;;5037636;28;20481;-71
2023/06/08 07:27:39;;;;;;;26.77;10.55;;;;;;;;;;5018009;28;20190;-70
2023/06/08 07:30:05;;;;;;;21.60;9.90;;;;;;;;;;5016015;28;20277;-70
2023/06/08 07:32:32;;;;;;;19.98;10.85;;;;;;;;;;5037716;28;20490;-70
2023/06/08 07:34:58;;;;;;;14.65;9.77;;;;;;;;;;5028033;28;20506;-70
2023/06/08 07:37:23;;;;;;;19.60;11.00;;;;;;;;;;5027041;28;20273;-70
2023/06/08 07:39:48;;;;;;;17.25;11.38;;;;;;;;;;5038142;28;20233;-70
2023/06/08 07:42:14;;;;;;;16.80;10.85;;;;;;;;;;5025279;28;20751;-70
2023/06/08 07:44:39;;;;;;;22.65;10.48;;;;;;;;;;5026917;28;20185;-69
2023/06/08 07:47:05;;;;;;;17.23;9.85;;;;;;;;;;5027852;28;20203;-70
2023/06/08 07:49:30;;;;;;;20.13;10.88;;;;;;;;;;5035312;28;20650;-69
2023/06/08 07:51:56;;;;;;;17.73;10.15;;;;;;;;;;5025047;28;20573;-70
2023/06/08 07:54:22;;;;;;;15.88;9.68;;;;;;;;;;5025165;28;20654;-71
2023/06/08 07:56:48;;;;;;;19.23;10.07;;;;;;;;;;5028122;28;20196;-70
2023/06/08 07:59:14;;;;;;;24.48;11.38;;;;;;;;;;5019349;28;20190;-70
2023/06/08 08:01:40;;;;;;;19.70;10.32;;;;;;;;;;5032060;28;20284;-71
2023/06/08 08:04:06;;;;;;;16.55;10.02;;;;;;;;;;5013958;28;20274;-70
2023/06/08 08:06:31;;;;;;;16.30;9.25;;;;;;;;;;5021564;28;20240;-70
2023/06/08 08:08:57;;;;;;;20.65;9.98;;;;;;;;;;5026733;28;20193;-69
2023/06/08 08:11:22;;;;;;;16.45;10.27;;;;;;;;;;5023855;28;20195;-70
2023/06/08 08:13:48;;;;;;;19.85;9.88;;;;;;;;;;5031534;28;20701;-69
2023/06/08 08:16:14;;;;;;;21.08;11.13;;;;;;;;;;5021589;28;20201;-70
2023/06/08 08:18:40;;;;;;;20.55;10.32;;;;;;;;;;5035122;28;20186;-70
2023/06/08 08:21:05;;;;;;;18.77;9.52;;;;;;;;;;5021735;28;20594;-69
2023/06/08 08:23:30;;;;;;;15.40;8.88;;;;;;;;;;5019241;28;20246;-69
2023/06/08 08:25:56;;;;;;;19.27;9.88;;;;;;;;;;5018359;28;20191;-69
2023/06/08 08:28:21;;;;;;;17.85;8.77;;;;;;;;;;5023339;28;20190;-69
2023/06/08 08:30:46;;;;;;;16.10;8.80;;;;;;;;;;5030600;28;20198;-70
2023/06/08 08:33:12;;;;;;;14.15;8.45;;;;;;;;;;5017390;28;20680;-70
2023/06/08 08:35:38;;;;;;;16.20;8.57;;;;;;;;;;5027615;28;20182;-69
2023/06/08 08:38:03;;;;;;;16.80;8.10;;;;;;;;;;5033689;28;20187;-70
2023/06/08 08:40:29;;;;;;;14.88;8.45;;;;;;;;;;5036767;28;20544;-70
2023/06/08 08:43:15;;;;;;;17.85;8.05;;;;;;;;;;5046992;28;20216;-70
2023/06/08 08:45:43;;;;;;;14.27;7.88;;;;;;;;;;5030296;28;20209;-70
2023/06/08 08:48:12;;;;;;;13.52;7.60;;;;;;;;;;5031930;28;20182;-69
2023/06/08 08:50:40;;;;;;;16.83;7.55;;;;;;;;;;5043108;28;20182;-69
2023/06/08 08:53:06;;;;;;;19.60;8.25;;;;;;;;;;5044284;28;20255;-70
2023/06/08 08:55:33;;;;;;;13.82;7.80;;;;;;;;;;5036818;28;20197;-70
2023/06/08 08:58:03;;;;;;;16.88;8.13;;;;;;;;;;5027702;28;20190;-70
2023/06/08 09:00:32;;;;;;;13.32;7.43;;;;;;;;;;5025303;28;20218;-71
2023/06/08 09:02:59;;;;;;;16.77;7.93;;;;;;;;;;5028054;28;20237;-70
2023/06/08 09:05:24;;;;;;;15.20;7.95;;;;;;;;;;5041511;28;20189;-70
2023/06/08 09:07:54;;;;;;;12.73;8.40;;;;;;;;;;5041025;28;20254;-70
2023/06/08 09:10:22;;;;;;;15.63;8.35;;;;;;;;;;5043210;28;20502;-70
2023/06/08 09:12:49;;;;;;;14.60;7.95;;;;;;;;;;5022125;28;20178;-70
2023/06/08 09:15:30;;;;;;;13.93;7.45;;;;;;;;;;5027113;28;20886;-70
2023/06/08 09:17:57;;;;;;;12.20;7.53;;;;;;;;;;5022097;28;20276;-70
2023/06/08 09:20:29;;;;;;;19.65;8.00;;;;;;;;;;5026631;28;20189;-70
2023/06/08 09:22:55;;;;;;;19.35;9.02;;;;;;;;;;5039117;28;20205;-70
2023/06/08 09:25:38;;;;;;;16.35;8.38;;;;;;;;;;5044176;28;20187;-70
2023/06/08 09:28:22;;;;;;;17.00;8.95;;;;;;;;;;5029269;28;20190;-70
2023/06/08 09:30:48;;;;;;;13.35;8.52;;;;;;;;;;5041415;28;20186;-72
2023/06/08 09:33:24;;;;;;;15.05;9.15;;;;;;;;;;5028905;28;20186;-70
2023/06/08 09:35:56;;;;;;;17.48;9.10;;;;;;;;;;5027997;28;20275;-70
2023/06/08 09:38:21;;;;;;;20.55;9.23;;;;;;;;;;5029206;28;20185;-70
2023/06/08 09:40:50;;;;;;;16.42;9.27;;;;;;;;;;5033975;28;20257;-70
2023/06/08 09:43:33;;;;;;;16.20;8.75;;;;;;;;;;5030011;28;20485;-70
2023/06/08 09:45:58;;;;;;;13.77;8.75;;;;;;;;;;5028763;28;20216;-70
2023/06/08 09:48:23;;;;;;;18.92;8.93;;;;;;;;;;5029088;28;20194;-70
2023/06/08 09:50:49;;;;;;;16.45;8.93;;;;;;;;;;5029800;28;20201;-70
2023/06/08 09:53:15;;;;;;;15.70;8.88;;;;;;;;;;5028921;28;20186;-70
2023/06/08 09:55:42;;;;;;;18.52;9.15;;;;;;;;;;5018024;28;20594;-70
2023/06/08 09:58:10;;;;;;;16.10;8.63;;;;;;;;;;5012500;28;20214;-71
2023/06/08 10:00:36;;;;;;;19.90;8.55;;;;;;;;;;5018275;28;20206;-70
2023/06/08 10:03:28;;;;;;;15.98;8.52;;;;;;;;;;5015521;28;20269;-70
2023/06/08 10:05:55;;;;;;;17.17;8.05;;;;;;;;;;5016860;28;20225;-70
2023/06/08 10:08:25;;;;;;;21.45;8.77;;;;;;;;;;5035306;28;20699;-70
2023/06/08 10:10:51;;;;;;;17.10;8.90;;;;;;;;;;5024979;28;20183;-69
2023/06/08 10:13:17;;;;;;;13.18;8.80;;;;;;;;;;5015746;28;20289;-70
2023/06/08 10:15:43;;;;;;;17.42;9.20;;;;;;;;;;5017029;28;20190;-69
2023/06/08 10:18:09;;;;;;;14.85;8.10;;;;;;;;;;5018995;28;20228;-69
2023/06/08 10:20:35;;;;;;;14.63;7.68;;;;;;;;;;5032064;28;20623;-69
2023/06/08 10:23:02;;;;;;;16.67;7.72;;;;;;;;;;5032398;28;20293;-70
2023/06/08 10:25:30;;;;;;;15.05;6.75;;;;;;;;;;5018898;28;20182;-69
2023/06/08 10:28:03;;;;;;;13.00;6.68;;;;;;;;;;5030924;28;20198;-68
2023/06/08 10:30:30;;;;;;;12.43;6.45;;;;;;;;;;5027233;28;20231;-69
2023/06/08 10:33:21;;;;;;;15.65;6.25;;;;;;;;;;5020883;28;20194;-68
2023/06/08 10:36:15;;;;;;;12.30;6.28;;;;;;;;;;5025374;28;20207;-68
2023/06/08 10:39:06;;;;;;;15.60;6.75;;;;;;;;;;5027779;28;20868;-69
2023/06/08 10:41:56;;;;;;;14.00;6.10;;;;;;;;;;5044132;28;20564;-71
2023/06/08 10:44:31;;;;;;;11.57;6.18;;;;;;;;;;5041759;28;20202;-70
2023/06/08 10:47:09;;;;;;;13.60;6.35;;;;;;;;;;5035833;28;20225;-69
2023/06/08 10:49:37;;;;;;;12.45;6.40;;;;;;;;;;5039407;28;20687;-70
2023/06/08 10:52:04;;;;;;;12.65;5.97;;;;;;;;;;5029469;28;20186;-70
2023/06/08 10:54:31;;;;;;;17.77;6.65;;;;;;;;;;5018287;28;20199;-69
2023/06/08 10:56:59;;;;;;;14.27;6.13;;;;;;;;;;5023593;28;20597;-69
2023/06/08 10:59:37;;;;;;;15.38;6.57;;;;;;;;;;5020717;28;20206;-69
2023/06/08 11:02:04;;;;;;;14.55;6.57;;;;;;;;;;5028089;28;20205;-69
2023/06/08 11:04:30;;;;;;;13.55;6.15;;;;;;;;;;5036360;28;20221;-69
2023/06/08 11:07:04;;;;;;;9.65;5.88;;;;;;;;;;5023262;28;20511;-69
2023/06/08 11:09:31;;;;;;;15.27;6.93;;;;;;;;;;5025483;28;20724;-70
2023/06/08 11:11:57;;;;;;;11.23;6.05;;;;;;;;;;5025758;28;20524;-70
2023/06/08 11:14:22;;;;;;;16.75;6.78;;;;;;;;;;5031781;28;20272;-69
2023/06/08 11:16:51;;;;;;;14.98;6.57;;;;;;;;;;5043855;28;20186;-69
2023/06/08 11:19:21;;;;;;;10.30;6.07;;;;;;;;;;5033627;28;20261;-70
2023/06/08 11:21:50;;;;;;;12.73;6.13;;;;;;;;;;5028550;28;20214;-69
2023/06/08 11:24:16;;;;;;;12.90;6.00;;;;;;;;;;5049570;28;20204;-69
2023/06/08 11:26:42;;;;;;;11.88;5.93;;;;;;;;;;5020974;28;20213;-69
2023/06/08 11:29:08;;;;;;;16.83;6.22;;;;;;;;;;5032165;28;20196;-69
2023/06/08 11:31:42;;;;;;;12.80;6.57;;;;;;;;;;5026825;28;20242;-69
2023/06/08 11:34:13;;;;;;;12.02;5.80;;;;;;;;;;5020741;28;20343;-68
2023/06/08 11:36:39;;;;;;;13.35;5.72;;;;;;;;;;5028323;28;20190;-69
2023/06/08 11:39:07;;;;;;;11.73;6.00;;;;;;;;;;5032988;28;20244;-70
2023/06/08 11:41:32;;;;;;;10.07;4.88;;;;;;;;;;5028539;28;20213;-68
2023/06/08 11:43:58;;;;;;;15.20;5.53;;;;;;;;;;5033261;28;20636;-70
2023/06/08 11:46:26;;;;;;;8.30;4.88;;;;;;;;;;5032531;28;20201;-69
2023/06/08 11:48:51;;;;;;;12.50;4.85;;;;;;;;;;5022232;28;20837;-70
2023/06/08 11:51:18;;;;;;;9.63;4.90;;;;;;;;;;5029888;28;20243;-69
2023/06/08 11:53:46;;;;;;;8.88;4.25;;;;;;;;;;5031089;28;20232;-69
2023/06/08 11:56:12;;;;;;;10.20;4.93;;;;;;;;;;5029510;28;20187;-69
2023/06/08 11:58:39;;;;;;;9.32;4.55;;;;;;;;;;5038034;28;20189;-69
2023/06/08 12:01:09;;;;;;;9.98;5.40;;;;;;;;;;5025724;28;20221;-69
2023/06/08 12:03:45;;;;;;;11.20;4.85;;;;;;;;;;5028311;28;20206;-69
2023/06/08 12:06:10;;;;;;;11.20;4.45;;;;;;;;;;5043436;28;20323;-69
2023/06/08 12:08:36;;;;;;;8.48;4.43;;;;;;;;;;5022702;28;20647;-69
2023/06/08 12:11:09;;;;;;;11.82;4.80;;;;;;;;;;5021518;28;20232;-70
2023/06/08 12:13:35;;;;;;;14.60;4.78;;;;;;;;;;5035500;28;20185;-70
2023/06/08 12:16:05;;;;;;;9.48;5.00;;;;;;;;;;5029143;28;20190;-69
2023/06/08 12:18:38;;;;;;;12.80;5.10;;;;;;;;;;5028168;28;20196;-69
2023/06/08 12:21:05;;;;;;;9.50;4.85;;;;;;;;;;5030415;28;20582;-69
2023/06/08 12:23:30;;;;;;;9.75;4.90;;;;;;;;;;5028758;28;20630;-70
2023/06/08 12:25:56;;;;;;;7.80;4.38;;;;;;;;;;5029057;28;20287;-69
2023/06/08 12:28:25;;;;;;;15.15;5.00;;;;;;;;;;5029640;28;20193;-69
2023/06/08 12:30:52;;;;;;;6.85;4.38;;;;;;;;;;5037454;28;20209;-69
2023/06/08 12:33:18;;;;;;;10.18;4.72;;;;;;;;;;5018211;28;20680;-69
2023/06/08 12:35:45;;;;;;;9.50;4.72;;;;;;;;;;5017286;28;20178;-70
2023/06/08 12:38:10;;;;;;;7.97;4.60;;;;;;;;;;5034020;28;20213;-68
2023/06/08 12:40:36;;;;;;;8.15;5.03;;;;;;;;;;5034347;28;20276;-69
2023/06/08 12:43:01;;;;;;;8.60;4.65;;;;;;;;;;5033600;28;20214;-69
2023/06/08 12:45:28;;;;;;;8.30;4.97;;;;;;;;;;5028244;28;20301;-69
2023/06/08 12:47:53;;;;;;;7.97;5.05;;;;;;;;;;5023804;28;20190;-69
2023/06/08 12:50:25;;;;;;;14.57;4.80;;;;;;;;;;5037884;28;20272;-69
2023/06/08 12:52:51;;;;;;;13.55;4.85;;;;;;;;;;5040369;28;20194;-69
2023/06/08 12:55:17;;;;;;;11.82;4.60;;;;;;;;;;5031764;28;20186;-71
2023/06/08 12:57:43;;;;;;;8.25;4.80;;;;;;;;;;5019515;28;20187;-69
2023/06/08 13:00:11;;;;;;;8.68;4.35;;;;;;;;;;5028956;28;20204;-69
2023/06/08 13:02:37;;;;;;;10.90;4.65;;;;;;;;;;5025292;28;20230;-69
2023/06/08 13:05:03;;;;;;;12.55;4.88;;;;;;;;;;5035540;28;20209;-69
2023/06/08 13:07:29;;;;;;;7.28;4.47;;;;;;;;;;5025213;28;20208;-69
2023/06/08 13:09:54;;;;;;;8.93;4.43;;;;;;;;;;5022985;28;20201;-69
2023/06/08 13:12:20;;;;;;;11.13;5.03;;;;;;;;;;5027152;28;20186;-70
2023/06/08 13:14:46;;;;;;;13.07;4.82;;;;;;;;;;5022244;28;20190;-69
2023/06/08 13:17:13;;;;;;;8.48;4.82;;;;;;;;;;5028547;28;20610;-70
2023/06/08 13:19:40;;;;;;;10.65;5.10;;;;;;;;;;5018599;28;20622;-69
2023/06/08 13:22:07;;;;;;;10.90;4.25;;;;;;;;;;5028294;28;20556;-69
2023/06/08 13:24:33;;;;;;;7.18;4.60;;;;;;;;;;5022529;28;20487;-69
2023/06/08 13:26:59;;;;;;;9.65;4.45;;;;;;;;;;5028881;28;20186;-70
2023/06/08 13:29:24;;;;;;;10.50;4.65;;;;;;;;;;5025010;28;20697;-70
2023/06/08 13:31:50;;;;;;;11.07;4.72;;;;;;;;;;5022516;28;20296;-70
2023/06/08 13:34:15;;;;;;;9.35;4.63;;;;;;;;;;5016925;28;20193;-70
2023/06/08 13:36:41;;;;;;;7.47;4.80;;;;;;;;;;5031389;28;20194;-69
2023/06/08 13:39:07;;;;;;;7.78;4.43;;;;;;;;;;5023770;28;20194;-69
2023/06/08 13:41:35;;;;;;;10.02;4.32;;;;;;;;;;5027644;28;20551;-70
2023/06/08 13:44:02;;;;;;;9.43;4.30;;;;;;;;;;5037753;28;20202;-70
2023/06/08 13:46:27;;;;;;;10.20;4.90;;;;;;;;;;5035763;28;20211;-71
2023/06/08 13:48:53;;;;;;;9.40;4.93;;;;;;;;;;5027405;28;20194;-69
2023/06/08 13:51:18;;;;;;;11.05;4.80;;;;;;;;;;5016927;28;20274;-71
2023/06/08 13:53:44;;;;;;;7.18;4.32;;;;;;;;;;5026648;28;20669;-73
2023/06/08 13:56:09;;;;;;;7.88;4.32;;;;;;;;;;5039870;28;20599;-71
2023/06/08 13:58:35;;;;;;;9.55;4.35;;;;;;;;;;5029664;28;20272;-73
2023/06/08 14:01:00;;;;;;;7.32;4.03;;;;;;;;;;5020853;28;20260;-72
2023/06/08 14:03:25;;;;;;;7.45;3.85;;;;;;;;;;5021230;28;20228;-71
2023/06/08 14:05:51;;;;;;;8.45;4.60;;;;;;;;;;5027901;28;20684;-70
2023/06/08 14:08:17;;;;;;;9.98;4.15;;;;;;;;;;5032979;28;20228;-70
2023/06/08 14:10:42;;;;;;;11.18;4.78;;;;;;;;;;5029814;28;20186;-71
2023/06/08 14:13:08;;;;;;;10.35;4.13;;;;;;;;;;5034491;28;20182;-71
2023/06/08 14:15:33;;;;;;;13.85;5.00;;;;;;;;;;5030982;28;20194;-70
2023/06/08 14:17:59;;;;;;;8.93;4.28;;;;;;;;;;5022963;28;20194;-71
2023/06/08 14:20:27;;;;;;;7.18;4.35;;;;;;;;;;5035548;28;20243;-70
2023/06/08 14:22:52;;;;;;;7.28;4.55;;;;;;;;;;5032608;28;20684;-71
2023/06/08 14:25:18;;;;;;;12.98;4.50;;;;;;;;;;5034097;28;20193;-70